createdAt,value
2023-04-22T00:02:23.539Z,101565.50
2023-04-22T00:04:50.721Z,101567.53
2023-04-22T00:07:17.895Z,101564.00
2023-04-22T00:09:45.858Z,101558.72
2023-04-22T00:12:12.749Z,101558.81
2023-04-22T00:14:39.544Z,101561.41
2023-04-22T00:17:07.298Z,101564.00
2023-04-22T00:19:34.886Z,101560.75
2023-04-22T00:22:02.164Z,101562.56
2023-04-22T00:24:29.562Z,101557.63
2023-04-22T00:26:56.434Z,101553.53
2023-04-22T00:29:23.226Z,101548.50
2023-04-22T00:31:50.261Z,101559.00
2023-04-22T00:34:18.159Z,101557.50
2023-04-22T00:36:45.067Z,101552.38
2023-04-22T00:39:12.537Z,101554.22
2023-04-22T00:41:40.059Z,101543.25
2023-04-22T00:44:10.084Z,101542.56
2023-04-22T00:46:38.638Z,101542.50
2023-04-22T00:49:06.173Z,101539.31
2023-04-22T00:51:33.073Z,101537.63
2023-04-22T00:54:02.101Z,101531.88
2023-04-22T00:56:29.110Z,101544.81
2023-04-22T00:58:55.922Z,101524.41
2023-04-22T01:01:23.128Z,101534.00
2023-04-22T01:03:50.882Z,101527.91
2023-04-22T01:09:09.738Z,101534.31
2023-04-22T01:11:37.098Z,101536.81
2023-04-22T01:14:04.351Z,101528.22
2023-04-22T01:16:34.192Z,101536.97
2023-04-22T01:19:01.949Z,101535.69
2023-04-22T01:21:29.745Z,101533.00
2023-04-22T01:23:56.550Z,101537.25
2023-04-22T01:26:23.349Z,101537.44
2023-04-22T01:28:50.124Z,101535.69
2023-04-22T01:31:17.027Z,101541.16
2023-04-22T01:33:44.503Z,101542.78
2023-04-22T01:36:13.271Z,101537.66
2023-04-22T01:38:40.962Z,101541.16
2023-04-22T01:41:07.989Z,101543.91
2023-04-22T01:43:34.812Z,101542.28
2023-04-22T01:46:02.248Z,101542.44
2023-04-22T01:48:29.130Z,101540.84
2023-04-22T01:50:56.170Z,101541.06
2023-04-22T01:53:23.036Z,101540.16
2023-04-22T01:55:49.790Z,101545.41
2023-04-22T01:58:16.813Z,101536.22
2023-04-22T02:00:44.191Z,101544.81
2023-04-22T02:03:11.323Z,101535.56
2023-04-22T02:05:38.399Z,101538.16
2023-04-22T02:08:05.250Z,101542.66
2023-04-22T02:10:32.330Z,101540.16
2023-04-22T02:12:59.208Z,101527.28
2023-04-22T02:15:26.076Z,101535.16
2023-04-22T02:17:53.192Z,101528.47
2023-04-22T02:20:20.041Z,101517.28
2023-04-22T02:22:46.957Z,101531.63
2023-04-22T02:25:14.225Z,101522.31
2023-04-22T02:27:41.175Z,101530.19
2023-04-22T02:30:08.795Z,101516.47
2023-04-22T02:32:37.100Z,101516.38
2023-04-22T02:35:05.384Z,101523.41
2023-04-22T02:37:32.225Z,101517.53
2023-04-22T02:39:59.011Z,101522.69
2023-04-22T02:42:25.773Z,101518.44
2023-04-22T02:44:52.810Z,101519.44
2023-04-22T02:47:19.581Z,101515.88
2023-04-22T02:49:46.456Z,101522.00
2023-04-22T02:52:13.371Z,101522.00
2023-04-22T02:54:40.272Z,101514.31
2023-04-22T02:57:07.724Z,101515.50
2023-04-22T02:59:35.121Z,101526.50
2023-04-22T03:02:03.773Z,101518.78
2023-04-22T03:04:32.562Z,101525.81
2023-04-22T03:07:00.058Z,101503.88
2023-04-22T03:09:26.857Z,101523.13
2023-04-22T03:11:53.673Z,101518.88
2023-04-22T03:14:20.831Z,101515.50
2023-04-22T03:16:47.683Z,101518.03
2023-04-22T03:19:14.532Z,101507.00
2023-04-22T03:21:41.341Z,101505.81
2023-04-22T03:24:08.182Z,101514.31
2023-04-22T03:26:35.034Z,101505.84
2023-04-22T03:29:02.032Z,101508.38
2023-04-22T03:31:28.968Z,101502.44
2023-04-22T03:33:55.777Z,101501.38
2023-04-22T03:36:22.576Z,101501.47
2023-04-22T03:38:49.927Z,101496.97
2023-04-22T03:41:16.780Z,101498.38
2023-04-22T03:43:43.589Z,101494.13
2023-04-22T03:46:11.002Z,101507.66
2023-04-22T03:48:37.836Z,101501.34
2023-04-22T03:51:04.688Z,101494.38
2023-04-22T03:53:31.505Z,101496.00
2023-04-22T03:55:58.346Z,101488.84
2023-04-22T03:58:25.290Z,101475.16
2023-04-22T04:00:52.155Z,101490.97
2023-04-22T04:03:19.240Z,101481.22
2023-04-22T04:05:46.389Z,101490.31
2023-04-22T04:08:13.279Z,101487.31
2023-04-22T04:10:40.169Z,101495.44
2023-04-22T04:13:06.983Z,101494.00
2023-04-22T04:15:35.768Z,101482.19
2023-04-22T04:18:04.200Z,101493.63
2023-04-22T04:20:31.181Z,101485.84
2023-04-22T04:22:57.948Z,101484.84
2023-04-22T04:25:24.786Z,101476.16
2023-04-22T04:27:52.819Z,101479.75
2023-04-22T04:30:21.508Z,101481.88
2023-04-22T04:32:48.405Z,101479.44
2023-04-22T04:35:15.378Z,101473.28
2023-04-22T04:37:46.442Z,101472.16
2023-04-22T04:40:13.696Z,101476.13
2023-04-22T04:42:40.813Z,101482.47
2023-04-22T04:45:09.375Z,101472.28
2023-04-22T04:47:36.311Z,101468.03
2023-04-22T04:50:04.570Z,101459.31
2023-04-22T04:52:31.893Z,101465.59
2023-04-22T04:54:58.718Z,101471.38
2023-04-22T04:57:25.596Z,101462.94
2023-04-22T04:59:52.429Z,101463.53
2023-04-22T05:02:19.356Z,101461.69
2023-04-22T05:04:46.877Z,101467.75
2023-04-22T05:07:13.953Z,101470.59
2023-04-22T05:09:41.484Z,101448.00
2023-04-22T05:12:08.668Z,101456.66
2023-04-22T05:14:35.477Z,101449.50
2023-04-22T05:17:02.803Z,101457.09
2023-04-22T05:19:29.682Z,101452.34
2023-04-22T05:21:56.572Z,101453.75
2023-04-22T05:24:23.423Z,101457.72
2023-04-22T05:26:50.397Z,101457.22
2023-04-22T05:29:17.321Z,101459.94
2023-04-22T05:31:44.211Z,101459.66
2023-04-22T05:34:12.103Z,101451.19
2023-04-22T05:36:38.939Z,101448.22
2023-04-22T05:39:06.620Z,101453.53
2023-04-22T05:41:33.445Z,101451.97
2023-04-22T05:44:00.332Z,101448.78
2023-04-22T05:46:27.199Z,101451.06
2023-04-22T05:48:55.860Z,101446.69
2023-04-22T05:51:23.763Z,101440.69
2023-04-22T05:53:51.002Z,101440.88
2023-04-22T05:56:17.823Z,101448.44
2023-04-22T05:58:44.696Z,101447.50
2023-04-22T06:01:11.674Z,101448.03
2023-04-22T06:03:38.813Z,101438.66
2023-04-22T06:06:06.531Z,101437.25
2023-04-22T06:08:33.391Z,101448.97
2023-04-22T06:11:00.214Z,101435.22
2023-04-22T06:13:27.948Z,101433.28
2023-04-22T06:15:54.862Z,101432.66
2023-04-22T06:18:21.855Z,101437.13
2023-04-22T06:20:48.718Z,101439.75
2023-04-22T06:23:15.518Z,101437.16
2023-04-22T06:25:42.296Z,101436.47
2023-04-22T06:28:09.176Z,101439.06
2023-04-22T06:30:36.124Z,101422.19
2023-04-22T06:33:02.999Z,101430.66
2023-04-22T06:35:29.874Z,101430.97
2023-04-22T06:37:56.897Z,101430.91
2023-04-22T06:40:23.755Z,101426.59
2023-04-22T06:42:50.631Z,101424.31
2023-04-22T06:45:17.568Z,101420.63
2023-04-22T06:47:44.402Z,101416.75
2023-04-22T06:50:11.296Z,101419.44
2023-04-22T06:52:38.098Z,101426.19
2023-04-22T06:55:05.474Z,101425.00
2023-04-22T06:57:32.416Z,101427.50
2023-04-22T06:59:59.275Z,101425.59
2023-04-22T07:02:26.219Z,101426.03
2023-04-22T07:04:53.250Z,101419.50
2023-04-22T07:07:20.037Z,101413.28
2023-04-22T07:09:46.804Z,101415.91
2023-04-22T07:12:13.594Z,101416.22
2023-04-22T07:14:44.659Z,101408.69
2023-04-22T07:17:12.018Z,101407.41
2023-04-22T07:19:40.018Z,101405.25
2023-04-22T07:22:07.105Z,101406.88
2023-04-22T07:24:34.007Z,101402.06
2023-04-22T07:27:02.365Z,101412.06
2023-04-22T07:29:29.221Z,101395.91
2023-04-22T07:31:56.165Z,101396.47
2023-04-22T07:34:22.995Z,101396.44
2023-04-22T07:36:53.761Z,101401.28
2023-04-22T07:39:20.745Z,101393.22
2023-04-22T07:41:47.691Z,101398.06
2023-04-22T07:44:18.492Z,101394.13
2023-04-22T07:46:45.483Z,101405.03
2023-04-22T07:49:14.385Z,101392.09
2023-04-22T07:51:41.273Z,101414.28
2023-04-22T07:54:08.095Z,101403.56
2023-04-22T07:56:35.083Z,101402.97
2023-04-22T07:59:02.008Z,101399.41
2023-04-22T08:01:28.847Z,101404.75
2023-04-22T08:03:56.762Z,101407.97
2023-04-22T08:06:23.746Z,101408.69
2023-04-22T08:08:50.569Z,101409.69
2023-04-22T08:11:17.368Z,101410.88
2023-04-22T08:13:44.298Z,101404.31
2023-04-22T08:16:11.151Z,101404.31
2023-04-22T08:18:38.054Z,101396.41
2023-04-22T08:21:04.842Z,101404.53
2023-04-22T08:23:32.411Z,101409.72
2023-04-22T08:25:59.244Z,101398.31
2023-04-22T08:28:26.420Z,101402.56
2023-04-22T08:30:53.234Z,101410.16
2023-04-22T08:33:20.111Z,101398.72
2023-04-22T08:35:47.205Z,101395.56
2023-04-22T08:38:14.233Z,101392.47
2023-04-22T08:40:42.170Z,101392.69
2023-04-22T08:43:09.620Z,101396.66
2023-04-22T08:45:38.745Z,101385.53
2023-04-22T08:48:05.998Z,101399.59
2023-04-22T08:50:33.088Z,101398.31
2023-04-22T08:53:00.053Z,101387.44
2023-04-22T08:55:26.901Z,101380.91
2023-04-22T08:57:53.942Z,101384.91
2023-04-22T09:00:21.005Z,101378.66
2023-04-22T09:02:48.496Z,101384.41
2023-04-22T09:05:15.514Z,101386.78
2023-04-22T09:07:42.406Z,101381.69
2023-04-22T09:10:11.892Z,101381.84
2023-04-22T09:12:39.153Z,101368.88
2023-04-22T09:15:07.482Z,101384.59
2023-04-22T09:17:35.369Z,101369.13
2023-04-22T09:20:02.852Z,101380.31
2023-04-22T09:22:30.139Z,101376.28
2023-04-22T09:24:57.065Z,101371.59
2023-04-22T09:27:24.756Z,101370.19
2023-04-22T09:29:52.588Z,101371.59
2023-04-22T09:32:19.677Z,101366.66
2023-04-22T09:34:51.486Z,101366.06
2023-04-22T09:37:26.459Z,101367.47
2023-04-22T09:39:57.721Z,101375.50
2023-04-22T09:42:24.532Z,101372.44
2023-04-22T09:44:54.498Z,101365.94
2023-04-22T09:47:23.680Z,101367.94
2023-04-22T09:49:50.659Z,101375.13
2023-04-22T09:52:29.642Z,101369.09
2023-04-22T09:54:56.497Z,101372.13
2023-04-22T09:57:23.573Z,101370.38
2023-04-22T09:59:51.313Z,101366.50
2023-04-22T10:02:18.196Z,101369.09
2023-04-22T10:04:47.337Z,101369.31
2023-04-22T10:07:15.168Z,101360.97
2023-04-22T10:09:42.132Z,101365.00
2023-04-22T10:12:09.132Z,101358.66
2023-04-22T10:14:35.968Z,101352.06
2023-04-22T10:17:03.605Z,101339.41
2023-04-22T10:19:30.616Z,101353.66
2023-04-22T10:21:58.915Z,101349.31
2023-04-22T10:24:27.145Z,101346.88
2023-04-22T10:27:01.722Z,101340.56
2023-04-22T10:29:39.148Z,101333.09
2023-04-22T10:32:26.286Z,101332.69
2023-04-22T10:35:11.295Z,101330.81
2023-04-22T10:37:57.350Z,101333.94
2023-04-22T10:40:25.630Z,101328.06
2023-04-22T10:42:53.154Z,101313.34
2023-04-22T10:45:21.884Z,101318.41
2023-04-22T10:47:49.668Z,101312.28
2023-04-22T10:50:22.249Z,101302.66
2023-04-22T10:53:22.012Z,101300.44
2023-04-22T10:55:52.927Z,101302.28
2023-04-22T10:58:20.780Z,101303.66
2023-04-22T11:00:54.358Z,101291.00
2023-04-22T11:03:26.964Z,101299.44
2023-04-22T11:06:18.703Z,101294.34
2023-04-22T11:08:49.245Z,101298.81
2023-04-22T11:11:19.319Z,101291.59
2023-04-22T11:13:47.598Z,101302.91
2023-04-22T11:16:14.470Z,101298.34
2023-04-22T11:18:41.451Z,101291.25
2023-04-22T11:21:09.444Z,101296.25
2023-04-22T11:23:37.175Z,101285.41
2023-04-22T11:26:06.236Z,101288.34
2023-04-22T11:28:33.223Z,101293.63
2023-04-22T11:31:06.996Z,101283.97
2023-04-22T11:33:34.590Z,101272.41
2023-04-22T11:36:01.460Z,101275.56
2023-04-22T11:38:28.506Z,101287.16
2023-04-22T11:40:56.023Z,101270.91
2023-04-22T11:43:22.813Z,101267.25
2023-04-22T11:45:49.670Z,101270.16
2023-04-22T11:48:16.899Z,101273.28
2023-04-22T11:50:44.874Z,101272.34
2023-04-22T11:53:18.516Z,101270.75
2023-04-22T11:55:46.315Z,101264.81
2023-04-22T11:58:45.341Z,101261.19
2023-04-22T12:01:12.765Z,101255.66
2023-04-22T12:03:39.733Z,101268.06
2023-04-22T12:06:06.702Z,101263.00
2023-04-22T12:08:35.626Z,101257.41
2023-04-22T12:11:06.969Z,101257.56
2023-04-22T12:13:36.792Z,101259.00
2023-04-22T12:16:04.977Z,101242.16
2023-04-22T12:18:32.810Z,101242.16
2023-04-22T12:21:21.384Z,101240.53
2023-04-22T12:23:55.171Z,101244.88
2023-04-22T12:26:26.694Z,101249.41
2023-04-22T12:28:54.523Z,101243.06
2023-04-22T12:31:22.025Z,101241.81
2023-04-22T12:33:49.208Z,101243.06
2023-04-22T12:36:16.413Z,101243.75
2023-04-22T12:38:43.210Z,101237.00
2023-04-22T12:41:10.127Z,101231.16
2023-04-22T12:43:37.599Z,101231.53
2023-04-22T12:46:04.846Z,101220.53
2023-04-22T12:48:33.184Z,101226.53
2023-04-22T12:51:00.446Z,101215.50
2023-04-22T12:53:27.673Z,101216.59
2023-04-22T12:55:54.996Z,101216.31
2023-04-22T12:58:21.848Z,101214.72
2023-04-22T13:00:48.679Z,101204.72
2023-04-22T13:03:15.765Z,101196.72
2023-04-22T13:05:42.704Z,101189.69
2023-04-22T13:08:09.546Z,101194.88
2023-04-22T13:10:36.443Z,101184.53
2023-04-22T13:15:34.694Z,101195.59
2023-04-22T13:18:02.055Z,101192.00
2023-04-22T13:20:29.098Z,101183.97
2023-04-22T13:22:56.192Z,101180.22
2023-04-22T13:25:22.986Z,101182.59
2023-04-22T13:27:49.896Z,101174.78
2023-04-22T13:30:16.809Z,101177.41
2023-04-22T13:32:43.644Z,101182.00
2023-04-22T13:35:10.604Z,101162.41
2023-04-22T13:37:37.843Z,101171.25
2023-04-22T13:40:06.288Z,101173.94
2023-04-22T13:42:33.394Z,101168.75
2023-04-22T13:45:00.173Z,101170.94
2023-04-22T13:47:27.575Z,101162.53
2023-04-22T13:49:54.392Z,101167.44
2023-04-22T13:52:21.882Z,101167.69
2023-04-22T13:54:48.699Z,101173.66
2023-04-22T13:57:15.494Z,101170.66
2023-04-22T13:59:42.678Z,101167.34
2023-04-22T14:02:09.766Z,101161.94
2023-04-22T14:04:36.638Z,101162.97
2023-04-22T14:07:04.256Z,101153.50
2023-04-22T14:09:31.358Z,101160.06
2023-04-22T14:11:58.525Z,101155.75
2023-04-22T14:14:25.370Z,101158.47
2023-04-22T14:16:52.380Z,101155.34
2023-04-22T14:19:19.528Z,101148.78
2023-04-22T14:21:46.373Z,101148.78
2023-04-22T14:24:13.373Z,101156.75
2023-04-22T14:26:40.469Z,101144.66
2023-04-22T14:29:07.368Z,101145.97
2023-04-22T14:31:34.198Z,101155.19
2023-04-22T14:34:01.074Z,101147.06
2023-04-22T14:36:28.051Z,101143.38
2023-04-22T14:38:54.904Z,101146.59
2023-04-22T14:41:21.737Z,101140.50
2023-04-22T14:43:48.564Z,101131.09
2023-04-22T14:46:15.385Z,101143.28
2023-04-22T14:48:42.467Z,101135.31
2023-04-22T14:51:09.289Z,101147.03
2023-04-22T14:53:36.751Z,101136.75
2023-04-22T14:56:03.658Z,101129.03
2023-04-22T14:58:33.124Z,101134.78
2023-04-22T15:01:00.147Z,101123.13
2023-04-22T15:03:27.415Z,101123.72
2023-04-22T15:05:56.121Z,101116.06
2023-04-22T15:08:25.243Z,101123.72
2023-04-22T15:10:52.156Z,101130.03
2023-04-22T15:13:19.823Z,101119.19
2023-04-22T15:15:47.014Z,101126.94
2023-04-22T15:18:13.907Z,101112.16
2023-04-22T15:20:40.881Z,101125.06
2023-04-22T15:23:07.685Z,101125.66
2023-04-22T15:25:35.122Z,101127.69
2023-04-22T15:28:02.176Z,101124.28
2023-04-22T15:30:28.935Z,101117.44
2023-04-22T15:32:55.765Z,101112.44
2023-04-22T15:35:25.857Z,101111.91
2023-04-22T15:37:53.043Z,101120.97
2023-04-22T15:40:19.902Z,101116.44
2023-04-22T15:42:46.696Z,101117.75
2023-04-22T15:45:13.480Z,101118.84
2023-04-22T15:47:41.269Z,101115.78
2023-04-22T15:50:09.670Z,101119.28
2023-04-22T15:52:37.666Z,101109.91
2023-04-22T15:55:05.865Z,101114.59
2023-04-22T15:57:35.796Z,101119.41
2023-04-22T16:00:12.435Z,101113.28
2023-04-22T16:02:39.813Z,101107.16
2023-04-22T16:05:07.000Z,101115.16
2023-04-22T16:07:33.805Z,101115.59
2023-04-22T16:10:00.676Z,101104.94
2023-04-22T16:12:27.517Z,101100.38
2023-04-22T16:14:54.351Z,101109.22
2023-04-22T16:17:21.134Z,101101.63
2023-04-22T16:19:48.137Z,101100.16
2023-04-22T16:22:14.927Z,101098.00
2023-04-22T16:24:43.946Z,101098.97
2023-04-22T16:27:16.840Z,101103.75
2023-04-22T16:29:44.187Z,101090.53
2023-04-22T16:32:11.699Z,101095.69
2023-04-22T16:34:38.835Z,101098.44
2023-04-22T16:37:06.200Z,101087.03
2023-04-22T16:39:33.348Z,101089.16
2023-04-22T16:42:00.209Z,101078.53
2023-04-22T16:44:27.001Z,101081.66
2023-04-22T16:46:53.813Z,101075.84
2023-04-22T16:49:21.131Z,101081.22
2023-04-22T16:51:48.497Z,101081.03
2023-04-22T16:54:15.355Z,101077.53
2023-04-22T16:56:42.190Z,101080.81
2023-04-22T16:59:08.982Z,101081.41
2023-04-22T17:01:36.313Z,101079.25
2023-04-22T17:04:03.287Z,101084.44
2023-04-22T17:06:30.155Z,101069.09
2023-04-22T17:08:56.951Z,101074.28
2023-04-22T17:11:24.165Z,101077.84
2023-04-22T17:13:51.501Z,101072.69
2023-04-22T17:16:18.681Z,101073.56
2023-04-22T17:18:47.108Z,101065.38
2023-04-22T17:21:14.083Z,101059.06
2023-04-22T17:23:40.980Z,101074.47
2023-04-22T17:26:07.956Z,101076.34
2023-04-22T17:28:34.894Z,101062.75
2023-04-22T17:31:01.736Z,101069.88
2023-04-22T17:33:29.221Z,101073.06
2023-04-22T17:35:56.445Z,101068.03
2023-04-22T17:38:23.190Z,101078.22
2023-04-22T17:40:49.933Z,101061.28
2023-04-22T17:43:16.668Z,101072.13
2023-04-22T17:45:44.137Z,101073.41
2023-04-22T17:48:10.944Z,101076.34
2023-04-22T17:50:37.756Z,101082.75
2023-04-22T17:53:04.510Z,101082.91
2023-04-22T17:55:35.101Z,101078.72
2023-04-22T17:58:02.721Z,101070.91
2023-04-22T18:00:29.792Z,101068.69
2023-04-22T18:02:56.813Z,101078.91
2023-04-22T18:05:23.810Z,101078.88
2023-04-22T18:07:50.779Z,101087.69
2023-04-22T18:10:17.592Z,101086.72
2023-04-22T18:12:44.340Z,101083.09
2023-04-22T18:15:11.143Z,101071.19
2023-04-22T18:17:38.051Z,101082.78
2023-04-22T18:20:16.745Z,101076.81
2023-04-22T18:22:48.347Z,101092.50
2023-04-22T18:25:15.407Z,101078.50
2023-04-22T18:27:42.851Z,101083.59
2023-04-22T18:30:09.962Z,101094.31
2023-04-22T18:32:37.350Z,101092.84
2023-04-22T18:35:04.834Z,101086.63
2023-04-22T18:37:32.782Z,101093.28
2023-04-22T18:39:59.598Z,101097.25
2023-04-22T18:42:26.420Z,101081.63
2023-04-22T18:44:53.182Z,101090.69
2023-04-22T18:47:20.061Z,101082.75
2023-04-22T18:49:46.841Z,101089.59
2023-04-22T18:52:13.690Z,101098.50
2023-04-22T18:54:41.057Z,101086.31
2023-04-22T18:57:08.370Z,101092.50
2023-04-22T18:59:35.144Z,101085.53
2023-04-22T19:02:01.975Z,101094.44
2023-04-22T19:04:28.882Z,101089.84
2023-04-22T19:06:57.299Z,101086.53
2023-04-22T19:09:24.119Z,101076.81
2023-04-22T19:11:50.989Z,101077.31
2023-04-22T19:14:17.782Z,101089.66
2023-04-22T19:16:44.585Z,101086.34
2023-04-22T19:19:12.229Z,101075.09
2023-04-22T19:21:39.485Z,101078.19
2023-04-22T19:24:06.742Z,101081.16
2023-04-22T19:26:33.952Z,101077.38
2023-04-22T19:29:00.772Z,101073.22
2023-04-22T19:31:28.464Z,101074.03
2023-04-22T19:33:55.458Z,101070.75
2023-04-22T19:36:22.505Z,101065.84
2023-04-22T19:38:49.399Z,101069.44
2023-04-22T19:41:16.295Z,101063.16
2023-04-22T19:43:43.149Z,101069.78
2023-04-22T19:46:10.003Z,101066.47
2023-04-22T19:48:37.418Z,101062.66
2023-04-22T19:51:05.422Z,101060.41
2023-04-22T19:53:32.237Z,101066.69
2023-04-22T19:55:59.057Z,101054.03
2023-04-22T19:58:25.877Z,101052.47
2023-04-22T20:00:52.999Z,101054.34
2023-04-22T20:03:20.255Z,101054.63
2023-04-22T20:05:47.305Z,101048.31
2023-04-22T20:08:14.118Z,101057.09
2023-04-22T20:10:40.949Z,101053.38
2023-04-22T20:13:07.789Z,101051.50
2023-04-22T20:15:34.689Z,101053.00
2023-04-22T20:18:01.629Z,101036.44
2023-04-22T20:20:28.988Z,101044.25
2023-04-22T20:22:55.839Z,101027.91
2023-04-22T20:25:23.234Z,101021.25
2023-04-22T20:27:50.266Z,101026.69
2023-04-22T20:30:17.357Z,101028.25
2023-04-22T20:32:44.307Z,101017.59
2023-04-22T20:35:15.228Z,101004.31
2023-04-22T20:37:42.364Z,101009.75
2023-04-22T20:40:09.610Z,101023.28
2023-04-22T20:42:37.088Z,101026.94
2023-04-22T20:45:05.474Z,101016.25
2023-04-22T20:47:32.591Z,101023.25
2023-04-22T20:49:59.566Z,101020.16
2023-04-22T20:52:26.674Z,101034.94
2023-04-22T20:54:56.665Z,101027.25
2023-04-22T20:57:23.830Z,101026.72
2023-04-22T20:59:50.824Z,101021.63
2023-04-22T21:02:18.171Z,101024.94
2023-04-22T21:04:45.153Z,101030.06
2023-04-22T21:07:12.160Z,101011.88
2023-04-22T21:09:39.157Z,101015.44
2023-04-22T21:12:06.593Z,101024.09
2023-04-22T21:14:33.660Z,101015.28
2023-04-22T21:17:20.074Z,101015.28
2023-04-22T21:19:48.724Z,101022.28
2023-04-22T21:22:16.232Z,101008.88
2023-04-22T21:24:43.286Z,101013.25
2023-04-22T21:27:10.354Z,101010.75
2023-04-22T21:29:38.242Z,101001.03
2023-04-22T21:32:09.709Z,101008.50
2023-04-22T21:34:37.782Z,100996.88
2023-04-22T21:37:05.240Z,100997.81
2023-04-22T21:39:32.013Z,100992.47
2023-04-22T21:41:58.917Z,100995.81
2023-04-22T21:44:25.674Z,100995.09
2023-04-22T21:46:52.360Z,100989.28
2023-04-22T21:49:20.523Z,101004.06
2023-04-22T21:51:47.277Z,100989.97
2023-04-22T21:54:13.996Z,100981.56
2023-04-22T21:56:40.744Z,100986.16
2023-04-22T21:59:07.475Z,100987.88
2023-04-22T22:01:34.181Z,100992.41
2023-04-22T22:04:01.126Z,100984.91
2023-04-22T22:06:28.533Z,100982.63
2023-04-22T22:08:55.543Z,100980.47
2023-04-22T22:13:51.966Z,100999.63
2023-04-22T22:16:19.172Z,101003.19
2023-04-22T22:18:46.554Z,101001.94
2023-04-22T22:21:13.312Z,100993.31
2023-04-22T22:23:40.056Z,101008.09
2023-04-22T22:26:08.255Z,101002.38
2023-04-22T22:28:35.020Z,100991.56
2023-04-22T22:31:02.635Z,100993.22
2023-04-22T22:33:29.747Z,100990.31
2023-04-22T22:35:56.864Z,100984.72
2023-04-22T22:38:23.603Z,100987.19
2023-04-22T22:40:50.905Z,100992.19
2023-04-22T22:43:17.742Z,100993.84
2023-04-22T22:45:44.602Z,100998.22
2023-04-22T22:48:11.424Z,100989.59
2023-04-22T22:50:39.028Z,100985.34
2023-04-22T22:53:05.876Z,100987.00
2023-04-22T22:55:34.186Z,100980.22
2023-04-22T22:58:00.999Z,100984.81
2023-04-22T23:00:27.769Z,100983.50
2023-04-22T23:02:54.865Z,100978.38
2023-04-22T23:05:22.162Z,100988.09
2023-04-22T23:07:48.981Z,100976.25
2023-04-22T23:10:15.872Z,100985.69
2023-04-22T23:12:42.648Z,100963.66
2023-04-22T23:15:09.845Z,100972.41
2023-04-22T23:17:36.975Z,100971.56
2023-04-22T23:20:04.394Z,100974.47
2023-04-22T23:22:32.217Z,100965.66
2023-04-22T23:24:59.459Z,100971.38
2023-04-22T23:27:26.496Z,100973.88
2023-04-22T23:29:53.658Z,100968.03
2023-04-22T23:32:20.860Z,100960.59
2023-04-22T23:34:49.183Z,100967.34
2023-04-22T23:37:16.284Z,100969.63
2023-04-22T23:39:43.288Z,100964.53
2023-04-22T23:42:10.895Z,100951.97
2023-04-22T23:44:37.764Z,100956.22
2023-04-22T23:47:05.530Z,100964.84
2023-04-22T23:49:32.374Z,100958.94
2023-04-22T23:51:59.642Z,100966.72
2023-04-22T23:54:27.277Z,100957.38
2023-04-22T23:56:54.504Z,100954.91
2023-04-22T23:59:21.576Z,100952.59
